sensor_id;sensor_type;location;lat;lon;timestamp;P1;durP1;ratioP1;P2;durP2;ratioP2
79710;SDS011;69465;51.630;6.570;2023-05-01T00:01:40;5.07;;;3.40;;
79710;SDS011;69465;51.630;6.570;2023-05-01T00:04:06;5.23;;;3.03;;
79710;SDS011;69465;51.630;6.570;2023-05-01T00:06:33;5.30;;;3.27;;
79710;SDS011;69465;51.630;6.570;2023-05-01T00:09:00;5.37;;;3.40;;
79710;SDS011;69465;51.630;6.570;2023-05-01T00:11:27;7.10;;;3.70;;
79710;SDS011;69465;51.630;6.570;2023-05-01T00:13:54;5.17;;;3.67;;
79710;SDS011;69465;51.630;6.570;2023-05-01T00:16:21;7.63;;;3.50;;
79710;SDS011;69465;51.630;6.570;2023-05-01T00:18:47;4.47;;;3.53;;
79710;SDS011;69465;51.630;6.570;2023-05-01T00:21:14;7.37;;;4.00;;
79710;SDS011;69465;51.630;6.570;2023-05-01T00:23:41;4.83;;;3.37;;
79710;SDS011;69465;51.630;6.570;2023-05-01T00:26:07;6.60;;;3.43;;
79710;SDS011;69465;51.630;6.570;2023-05-01T00:28:34;6.87;;;3.57;;
79710;SDS011;69465;51.630;6.570;2023-05-01T00:31:00;6.97;;;3.40;;
79710;SDS011;69465;51.630;6.570;2023-05-01T00:33:27;5.67;;;3.50;;
79710;SDS011;69465;51.630;6.570;2023-05-01T00:35:54;6.40;;;3.33;;
79710;SDS011;69465;51.630;6.570;2023-05-01T00:38:21;7.23;;;3.63;;
79710;SDS011;69465;51.630;6.570;2023-05-01T00:40:47;7.10;;;3.53;;
79710;SDS011;69465;51.630;6.570;2023-05-01T00:43:14;5.53;;;3.50;;
79710;SDS011;69465;51.630;6.570;2023-05-01T00:45:42;4.80;;;3.60;;
79710;SDS011;69465;51.630;6.570;2023-05-01T00:48:10;6.30;;;3.60;;
79710;SDS011;69465;51.630;6.570;2023-05-01T00:50:37;4.07;;;3.67;;
79710;SDS011;69465;51.630;6.570;2023-05-01T00:53:04;5.57;;;3.70;;
79710;SDS011;69465;51.630;6.570;2023-05-01T00:55:31;8.90;;;4.17;;
79710;SDS011;69465;51.630;6.570;2023-05-01T00:57:58;7.43;;;3.90;;
79710;SDS011;69465;51.630;6.570;2023-05-01T01:00:26;5.90;;;3.50;;
79710;SDS011;69465;51.630;6.570;2023-05-01T01:02:52;7.53;;;3.80;;
79710;SDS011;69465;51.630;6.570;2023-05-01T01:05:19;5.77;;;3.57;;
79710;SDS011;69465;51.630;6.570;2023-05-01T01:07:58;5.67;;;3.87;;
79710;SDS011;69465;51.630;6.570;2023-05-01T01:13:33;7.03;;;4.27;;
79710;SDS011;69465;51.630;6.570;2023-05-01T01:21:59;7.33;;;4.07;;
79710;SDS011;69465;51.630;6.570;2023-05-01T01:30:20;9.50;;;4.43;;
79710;SDS011;69465;51.630;6.570;2023-05-01T01:36:06;8.13;;;3.67;;
79710;SDS011;69465;51.630;6.570;2023-05-01T01:38:44;7.20;;;3.50;;
79710;SDS011;69465;51.630;6.570;2023-05-01T01:41:17;7.83;;;4.07;;
79710;SDS011;69465;51.630;6.570;2023-05-01T01:43:53;7.53;;;4.33;;
79710;SDS011;69465;51.630;6.570;2023-05-01T01:46:25;6.77;;;4.03;;
79710;SDS011;69465;51.630;6.570;2023-05-01T01:48:53;5.57;;;3.70;;
79710;SDS011;69465;51.630;6.570;2023-05-01T01:51:21;5.47;;;3.77;;
79710;SDS011;69465;51.630;6.570;2023-05-01T01:53:51;5.77;;;3.73;;
79710;SDS011;69465;51.630;6.570;2023-05-01T01:56:20;6.33;;;4.23;;
79710;SDS011;69465;51.630;6.570;2023-05-01T01:58:49;8.93;;;4.30;;
79710;SDS011;69465;51.630;6.570;2023-05-01T02:01:17;10.40;;;4.93;;
79710;SDS011;69465;51.630;6.570;2023-05-01T02:03:46;6.53;;;3.80;;
79710;SDS011;69465;51.630;6.570;2023-05-01T02:06:14;6.27;;;4.20;;
79710;SDS011;69465;51.630;6.570;2023-05-01T02:08:42;5.77;;;4.00;;
79710;SDS011;69465;51.630;6.570;2023-05-01T02:11:12;7.13;;;3.83;;
79710;SDS011;69465;51.630;6.570;2023-05-01T02:13:40;5.70;;;4.27;;
79710;SDS011;69465;51.630;6.570;2023-05-01T02:16:09;6.57;;;4.50;;
79710;SDS011;69465;51.630;6.570;2023-05-01T02:18:38;7.73;;;4.40;;
79710;SDS011;69465;51.630;6.570;2023-05-01T02:21:05;6.77;;;4.57;;
79710;SDS011;69465;51.630;6.570;2023-05-01T02:23:32;7.30;;;4.73;;
79710;SDS011;69465;51.630;6.570;2023-05-01T02:25:59;7.30;;;4.13;;
79710;SDS011;69465;51.630;6.570;2023-05-01T02:28:29;7.50;;;4.60;;
79710;SDS011;69465;51.630;6.570;2023-05-01T02:30:57;5.27;;;3.87;;
79710;SDS011;69465;51.630;6.570;2023-05-01T02:33:24;7.07;;;4.33;;
79710;SDS011;69465;51.630;6.570;2023-05-01T02:35:51;6.77;;;4.23;;
79710;SDS011;69465;51.630;6.570;2023-05-01T02:38:17;7.03;;;4.47;;
79710;SDS011;69465;51.630;6.570;2023-05-01T02:40:46;7.17;;;4.50;;
79710;SDS011;69465;51.630;6.570;2023-05-01T02:43:17;8.10;;;4.57;;
79710;SDS011;69465;51.630;6.570;2023-05-01T02:45:46;9.40;;;5.23;;
79710;SDS011;69465;51.630;6.570;2023-05-01T02:48:15;8.43;;;4.77;;
79710;SDS011;69465;51.630;6.570;2023-05-01T02:50:46;6.00;;;5.23;;
79710;SDS011;69465;51.630;6.570;2023-05-01T02:53:14;8.50;;;4.37;;
79710;SDS011;69465;51.630;6.570;2023-05-01T02:55:42;7.00;;;4.80;;
79710;SDS011;69465;51.630;6.570;2023-05-01T02:58:13;7.07;;;4.60;;
79710;SDS011;69465;51.630;6.570;2023-05-01T03:00:41;6.27;;;4.70;;
79710;SDS011;69465;51.630;6.570;2023-05-01T03:03:08;9.40;;;4.73;;
79710;SDS011;69465;51.630;6.570;2023-05-01T03:05:35;13.43;;;5.07;;
79710;SDS011;69465;51.630;6.570;2023-05-01T03:08:01;8.40;;;5.00;;
79710;SDS011;69465;51.630;6.570;2023-05-01T03:10:28;8.67;;;4.40;;
79710;SDS011;69465;51.630;6.570;2023-05-01T03:12:55;7.93;;;5.10;;
79710;SDS011;69465;51.630;6.570;2023-05-01T03:15:21;8.57;;;5.23;;
79710;SDS011;69465;51.630;6.570;2023-05-01T03:17:48;6.83;;;4.87;;
79710;SDS011;69465;51.630;6.570;2023-05-01T03:20:15;7.73;;;4.23;;
79710;SDS011;69465;51.630;6.570;2023-05-01T03:22:42;7.07;;;4.37;;
79710;SDS011;69465;51.630;6.570;2023-05-01T03:25:09;7.37;;;4.87;;
79710;SDS011;69465;51.630;6.570;2023-05-01T03:27:36;7.20;;;5.00;;
79710;SDS011;69465;51.630;6.570;2023-05-01T03:30:03;9.27;;;5.57;;
79710;SDS011;69465;51.630;6.570;2023-05-01T03:32:30;9.37;;;4.80;;
79710;SDS011;69465;51.630;6.570;2023-05-01T03:34:56;8.50;;;5.10;;
79710;SDS011;69465;51.630;6.570;2023-05-01T03:37:23;7.63;;;5.13;;
79710;SDS011;69465;51.630;6.570;2023-05-01T03:39:50;6.77;;;5.37;;
79710;SDS011;69465;51.630;6.570;2023-05-01T03:42:17;7.30;;;5.03;;
79710;SDS011;69465;51.630;6.570;2023-05-01T03:44:44;10.00;;;5.93;;
79710;SDS011;69465;51.630;6.570;2023-05-01T03:47:11;9.57;;;5.63;;
79710;SDS011;69465;51.630;6.570;2023-05-01T03:49:38;7.30;;;5.73;;
79710;SDS011;69465;51.630;6.570;2023-05-01T03:52:04;10.47;;;5.73;;
79710;SDS011;69465;51.630;6.570;2023-05-01T03:54:31;9.53;;;6.63;;
79710;SDS011;69465;51.630;6.570;2023-05-01T03:56:57;6.93;;;5.43;;
79710;SDS011;69465;51.630;6.570;2023-05-01T03:59:24;10.27;;;6.30;;
79710;SDS011;69465;51.630;6.570;2023-05-01T04:01:51;8.03;;;5.80;;
79710;SDS011;69465;51.630;6.570;2023-05-01T04:04:17;10.63;;;5.87;;
79710;SDS011;69465;51.630;6.570;2023-05-01T04:06:44;9.33;;;7.30;;
79710;SDS011;69465;51.630;6.570;2023-05-01T04:09:11;9.77;;;6.10;;
79710;SDS011;69465;51.630;6.570;2023-05-01T04:11:38;8.73;;;6.37;;
79710;SDS011;69465;51.630;6.570;2023-05-01T04:14:04;7.43;;;5.73;;
79710;SDS011;69465;51.630;6.570;2023-05-01T04:16:31;9.00;;;6.03;;
79710;SDS011;69465;51.630;6.570;2023-05-01T04:18:58;9.90;;;6.10;;
79710;SDS011;69465;51.630;6.570;2023-05-01T04:21:25;9.23;;;6.10;;
79710;SDS011;69465;51.630;6.570;2023-05-01T04:23:52;10.10;;;6.20;;
79710;SDS011;69465;51.630;6.570;2023-05-01T04:26:18;14.83;;;6.70;;
79710;SDS011;69465;51.630;6.570;2023-05-01T04:28:45;12.43;;;6.10;;
79710;SDS011;69465;51.630;6.570;2023-05-01T04:31:12;12.37;;;6.67;;
79710;SDS011;69465;51.630;6.570;2023-05-01T04:33:39;13.57;;;6.47;;
79710;SDS011;69465;51.630;6.570;2023-05-01T04:36:05;12.73;;;7.53;;
79710;SDS011;69465;51.630;6.570;2023-05-01T04:38:32;9.40;;;6.50;;
79710;SDS011;69465;51.630;6.570;2023-05-01T04:40:59;9.17;;;6.60;;
79710;SDS011;69465;51.630;6.570;2023-05-01T04:43:25;10.77;;;6.77;;
79710;SDS011;69465;51.630;6.570;2023-05-01T04:45:52;9.27;;;6.63;;
79710;SDS011;69465;51.630;6.570;2023-05-01T04:48:19;9.80;;;7.60;;
79710;SDS011;69465;51.630;6.570;2023-05-01T04:50:46;12.27;;;6.97;;
79710;SDS011;69465;51.630;6.570;2023-05-01T04:53:13;8.17;;;6.53;;
79710;SDS011;69465;51.630;6.570;2023-05-01T04:55:39;10.23;;;7.53;;
79710;SDS011;69465;51.630;6.570;2023-05-01T04:58:06;13.47;;;7.60;;
79710;SDS011;69465;51.630;6.570;2023-05-01T05:00:33;12.20;;;7.60;;
79710;SDS011;69465;51.630;6.570;2023-05-01T05:02:59;7.00;;;5.53;;
79710;SDS011;69465;51.630;6.570;2023-05-01T05:05:27;8.60;;;5.50;;
79710;SDS011;69465;51.630;6.570;2023-05-01T05:07:53;6.97;;;5.87;;
79710;SDS011;69465;51.630;6.570;2023-05-01T05:10:19;8.27;;;6.30;;
79710;SDS011;69465;51.630;6.570;2023-05-01T05:12:46;9.30;;;5.73;;
79710;SDS011;69465;51.630;6.570;2023-05-01T05:15:13;8.17;;;5.77;;
79710;SDS011;69465;51.630;6.570;2023-05-01T05:17:39;8.33;;;6.17;;
79710;SDS011;69465;51.630;6.570;2023-05-01T05:20:06;8.80;;;5.50;;
79710;SDS011;69465;51.630;6.570;2023-05-01T05:22:36;9.70;;;6.07;;
79710;SDS011;69465;51.630;6.570;2023-05-01T05:25:03;7.73;;;5.03;;
79710;SDS011;69465;51.630;6.570;2023-05-01T05:27:30;7.37;;;5.30;;
79710;SDS011;69465;51.630;6.570;2023-05-01T05:29:57;9.00;;;5.60;;
79710;SDS011;69465;51.630;6.570;2023-05-01T05:32:24;7.63;;;5.00;;
79710;SDS011;69465;51.630;6.570;2023-05-01T05:34:50;6.90;;;4.90;;
79710;SDS011;69465;51.630;6.570;2023-05-01T05:37:16;8.33;;;4.83;;
79710;SDS011;69465;51.630;6.570;2023-05-01T05:39:43;7.17;;;4.97;;
79710;SDS011;69465;51.630;6.570;2023-05-01T05:42:10;8.40;;;5.50;;
79710;SDS011;69465;51.630;6.570;2023-05-01T05:44:36;8.90;;;5.50;;
79710;SDS011;69465;51.630;6.570;2023-05-01T05:47:03;7.00;;;5.13;;
79710;SDS011;69465;51.630;6.570;2023-05-01T05:49:30;6.97;;;5.23;;
79710;SDS011;69465;51.630;6.570;2023-05-01T05:51:56;7.47;;;5.53;;
79710;SDS011;69465;51.630;6.570;2023-05-01T05:54:23;8.00;;;5.17;;
79710;SDS011;69465;51.630;6.570;2023-05-01T05:56:49;6.40;;;5.27;;
79710;SDS011;69465;51.630;6.570;2023-05-01T05:59:16;8.57;;;5.40;;
79710;SDS011;69465;51.630;6.570;2023-05-01T06:01:43;7.67;;;5.60;;
79710;SDS011;69465;51.630;6.570;2023-05-01T06:04:09;9.30;;;5.23;;
79710;SDS011;69465;51.630;6.570;2023-05-01T06:06:36;7.57;;;5.20;;
79710;SDS011;69465;51.630;6.570;2023-05-01T06:09:03;7.37;;;5.97;;
79710;SDS011;69465;51.630;6.570;2023-05-01T06:11:30;7.20;;;5.27;;
79710;SDS011;69465;51.630;6.570;2023-05-01T06:13:57;11.67;;;5.73;;
79710;SDS011;69465;51.630;6.570;2023-05-01T06:16:23;11.80;;;6.20;;
79710;SDS011;69465;51.630;6.570;2023-05-01T06:18:50;8.80;;;5.90;;
79710;SDS011;69465;51.630;6.570;2023-05-01T06:21:17;7.73;;;5.17;;
79710;SDS011;69465;51.630;6.570;2023-05-01T06:23:43;8.93;;;5.47;;
79710;SDS011;69465;51.630;6.570;2023-05-01T06:26:10;7.83;;;5.40;;
79710;SDS011;69465;51.630;6.570;2023-05-01T06:28:37;10.50;;;5.60;;
79710;SDS011;69465;51.630;6.570;2023-05-01T06:31:04;9.67;;;5.37;;
79710;SDS011;69465;51.630;6.570;2023-05-01T06:33:30;8.67;;;5.67;;
79710;SDS011;69465;51.630;6.570;2023-05-01T06:35:57;10.40;;;5.40;;
79710;SDS011;69465;51.630;6.570;2023-05-01T06:38:24;10.17;;;6.07;;
79710;SDS011;69465;51.630;6.570;2023-05-01T06:40:52;13.07;;;5.20;;
79710;SDS011;69465;51.630;6.570;2023-05-01T06:43:19;9.00;;;5.57;;
79710;SDS011;69465;51.630;6.570;2023-05-01T06:45:45;8.43;;;5.43;;
79710;SDS011;69465;51.630;6.570;2023-05-01T06:48:12;7.00;;;5.13;;
79710;SDS011;69465;51.630;6.570;2023-05-01T06:50:39;6.83;;;4.90;;
79710;SDS011;69465;51.630;6.570;2023-05-01T06:53:05;7.27;;;5.27;;
79710;SDS011;69465;51.630;6.570;2023-05-01T06:55:32;7.90;;;5.43;;
79710;SDS011;69465;51.630;6.570;2023-05-01T06:58:01;8.17;;;4.80;;
79710;SDS011;69465;51.630;6.570;2023-05-01T07:00:37;8.07;;;5.00;;
79710;SDS011;69465;51.630;6.570;2023-05-01T07:03:04;6.80;;;5.43;;
79710;SDS011;69465;51.630;6.570;2023-05-01T07:05:31;6.90;;;5.10;;
79710;SDS011;69465;51.630;6.570;2023-05-01T07:07:57;7.17;;;5.10;;
79710;SDS011;69465;51.630;6.570;2023-05-01T07:10:27;10.07;;;5.07;;
79710;SDS011;69465;51.630;6.570;2023-05-01T07:12:53;6.30;;;5.07;;
79710;SDS011;69465;51.630;6.570;2023-05-01T07:15:20;7.53;;;4.73;;
79710;SDS011;69465;51.630;6.570;2023-05-01T07:17:46;8.97;;;4.90;;
79710;SDS011;69465;51.630;6.570;2023-05-01T07:20:13;7.57;;;5.23;;
79710;SDS011;69465;51.630;6.570;2023-05-01T07:22:39;9.43;;;4.93;;
79710;SDS011;69465;51.630;6.570;2023-05-01T07:25:06;8.30;;;5.00;;
79710;SDS011;69465;51.630;6.570;2023-05-01T07:27:33;7.13;;;4.67;;
79710;SDS011;69465;51.630;6.570;2023-05-01T07:30:01;7.43;;;4.73;;
79710;SDS011;69465;51.630;6.570;2023-05-01T07:32:28;8.93;;;4.80;;
79710;SDS011;69465;51.630;6.570;2023-05-01T07:34:55;6.17;;;4.67;;
79710;SDS011;69465;51.630;6.570;2023-05-01T07:37:21;7.90;;;4.63;;
79710;SDS011;69465;51.630;6.570;2023-05-01T07:39:48;7.10;;;3.90;;
79710;SDS011;69465;51.630;6.570;2023-05-01T07:42:15;6.87;;;4.83;;
79710;SDS011;69465;51.630;6.570;2023-05-01T07:44:41;5.87;;;4.63;;
79710;SDS011;69465;51.630;6.570;2023-05-01T07:47:08;6.87;;;4.27;;
79710;SDS011;69465;51.630;6.570;2023-05-01T07:49:35;7.20;;;4.30;;
79710;SDS011;69465;51.630;6.570;2023-05-01T07:52:03;6.23;;;4.20;;
79710;SDS011;69465;51.630;6.570;2023-05-01T07:54:30;7.17;;;4.40;;
79710;SDS011;69465;51.630;6.570;2023-05-01T07:56:57;5.50;;;4.20;;
79710;SDS011;69465;51.630;6.570;2023-05-01T07:59:24;8.33;;;4.43;;
79710;SDS011;69465;51.630;6.570;2023-05-01T08:01:51;8.63;;;4.20;;
79710;SDS011;69465;51.630;6.570;2023-05-01T08:04:17;5.07;;;3.97;;
79710;SDS011;69465;51.630;6.570;2023-05-01T08:06:44;6.47;;;4.00;;
79710;SDS011;69465;51.630;6.570;2023-05-01T08:09:11;4.87;;;3.60;;
79710;SDS011;69465;51.630;6.570;2023-05-01T08:11:37;5.30;;;3.70;;
79710;SDS011;69465;51.630;6.570;2023-05-01T08:14:04;4.43;;;3.80;;
79710;SDS011;69465;51.630;6.570;2023-05-01T08:16:32;4.60;;;3.73;;
79710;SDS011;69465;51.630;6.570;2023-05-01T08:19:00;5.03;;;3.33;;
79710;SDS011;69465;51.630;6.570;2023-05-01T08:21:26;4.10;;;3.23;;
79710;SDS011;69465;51.630;6.570;2023-05-01T08:23:53;4.40;;;3.30;;
79710;SDS011;69465;51.630;6.570;2023-05-01T08:26:21;4.40;;;3.17;;
79710;SDS011;69465;51.630;6.570;2023-05-01T08:28:48;4.57;;;3.57;;
79710;SDS011;69465;51.630;6.570;2023-05-01T08:31:14;4.47;;;3.70;;
79710;SDS011;69465;51.630;6.570;2023-05-01T08:33:41;4.37;;;3.30;;
79710;SDS011;69465;51.630;6.570;2023-05-01T08:36:08;4.93;;;3.20;;
79710;SDS011;69465;51.630;6.570;2023-05-01T08:38:35;4.60;;;3.30;;
79710;SDS011;69465;51.630;6.570;2023-05-01T08:41:03;5.07;;;3.43;;
79710;SDS011;69465;51.630;6.570;2023-05-01T08:43:30;4.07;;;3.17;;
79710;SDS011;69465;51.630;6.570;2023-05-01T08:45:59;3.33;;;3.03;;
79710;SDS011;69465;51.630;6.570;2023-05-01T08:48:26;3.87;;;3.20;;
79710;SDS011;69465;51.630;6.570;2023-05-01T08:50:55;4.07;;;3.37;;
79710;SDS011;69465;51.630;6.570;2023-05-01T08:53:22;4.63;;;3.90;;
79710;SDS011;69465;51.630;6.570;2023-05-01T08:55:50;6.07;;;4.13;;
79710;SDS011;69465;51.630;6.570;2023-05-01T08:58:18;4.37;;;3.50;;
79710;SDS011;69465;51.630;6.570;2023-05-01T09:00:49;8.50;;;4.30;;
79710;SDS011;69465;51.630;6.570;2023-05-01T09:03:16;4.67;;;3.80;;
79710;SDS011;69465;51.630;6.570;2023-05-01T09:05:44;5.63;;;4.27;;
79710;SDS011;69465;51.630;6.570;2023-05-01T09:08:11;4.37;;;3.97;;
79710;SDS011;69465;51.630;6.570;2023-05-01T09:10:38;6.27;;;4.20;;
79710;SDS011;69465;51.630;6.570;2023-05-01T09:13:09;4.33;;;3.37;;
79710;SDS011;69465;51.630;6.570;2023-05-01T09:15:36;6.73;;;3.83;;
79710;SDS011;69465;51.630;6.570;2023-05-01T09:18:03;4.53;;;3.53;;
79710;SDS011;69465;51.630;6.570;2023-05-01T09:20:30;5.50;;;4.07;;
79710;SDS011;69465;51.630;6.570;2023-05-01T09:22:56;5.47;;;3.70;;
79710;SDS011;69465;51.630;6.570;2023-05-01T09:25:24;5.73;;;3.70;;
79710;SDS011;69465;51.630;6.570;2023-05-01T09:27:50;3.80;;;3.23;;
79710;SDS011;69465;51.630;6.570;2023-05-01T09:30:36;5.13;;;3.40;;
79710;SDS011;69465;51.630;6.570;2023-05-01T09:33:21;5.07;;;3.00;;
79710;SDS011;69465;51.630;6.570;2023-05-01T09:38:18;3.20;;;2.90;;
79710;SDS011;69465;51.630;6.570;2023-05-01T09:40:55;5.43;;;3.60;;
79710;SDS011;69465;51.630;6.570;2023-05-01T09:43:29;3.90;;;3.50;;
79710;SDS011;69465;51.630;6.570;2023-05-01T09:46:02;5.50;;;3.60;;
79710;SDS011;69465;51.630;6.570;2023-05-01T09:48:31;3.40;;;3.10;;
79710;SDS011;69465;51.630;6.570;2023-05-01T09:51:01;4.77;;;3.63;;
79710;SDS011;69465;51.630;6.570;2023-05-01T09:53:48;4.30;;;3.47;;
79710;SDS011;69465;51.630;6.570;2023-05-01T09:56:15;4.23;;;3.30;;
79710;SDS011;69465;51.630;6.570;2023-05-01T09:58:42;4.70;;;3.60;;
79710;SDS011;69465;51.630;6.570;2023-05-01T10:01:08;8.47;;;3.90;;
79710;SDS011;69465;51.630;6.570;2023-05-01T10:03:35;5.00;;;3.83;;
79710;SDS011;69465;51.630;6.570;2023-05-01T10:06:02;4.07;;;3.47;;
79710;SDS011;69465;51.630;6.570;2023-05-01T10:08:45;4.00;;;2.90;;
79710;SDS011;69465;51.630;6.570;2023-05-01T10:11:13;3.87;;;3.00;;
79710;SDS011;69465;51.630;6.570;2023-05-01T10:13:39;5.17;;;3.80;;
79710;SDS011;69465;51.630;6.570;2023-05-01T10:16:06;3.97;;;3.50;;
79710;SDS011;69465;51.630;6.570;2023-05-01T10:18:53;3.37;;;2.87;;
79710;SDS011;69465;51.630;6.570;2023-05-01T10:21:20;4.07;;;3.70;;
79710;SDS011;69465;51.630;6.570;2023-05-01T10:23:47;4.57;;;3.17;;
79710;SDS011;69465;51.630;6.570;2023-05-01T10:26:14;4.43;;;3.70;;
79710;SDS011;69465;51.630;6.570;2023-05-01T10:28:43;4.50;;;3.67;;
79710;SDS011;69465;51.630;6.570;2023-05-01T10:31:11;4.77;;;3.40;;
79710;SDS011;69465;51.630;6.570;2023-05-01T10:33:38;5.30;;;3.87;;
79710;SDS011;69465;51.630;6.570;2023-05-01T10:36:07;5.77;;;3.67;;
79710;SDS011;69465;51.630;6.570;2023-05-01T10:38:38;4.07;;;3.23;;
79710;SDS011;69465;51.630;6.570;2023-05-01T10:41:05;3.90;;;3.33;;
79710;SDS011;69465;51.630;6.570;2023-05-01T10:43:32;3.53;;;3.23;;
79710;SDS011;69465;51.630;6.570;2023-05-01T10:51:13;4.00;;;2.97;;
79710;SDS011;69465;51.630;6.570;2023-05-01T10:53:44;4.03;;;2.97;;
79710;SDS011;69465;51.630;6.570;2023-05-01T10:59:00;4.17;;;3.27;;
79710;SDS011;69465;51.630;6.570;2023-05-01T11:01:35;3.73;;;2.90;;
79710;SDS011;69465;51.630;6.570;2023-05-01T11:04:08;4.30;;;3.10;;
79710;SDS011;69465;51.630;6.570;2023-05-01T11:09:42;3.23;;;2.43;;
79710;SDS011;69465;51.630;6.570;2023-05-01T11:12:14;4.33;;;3.00;;
79710;SDS011;69465;51.630;6.570;2023-05-01T11:15:01;4.03;;;3.63;;
79710;SDS011;69465;51.630;6.570;2023-05-01T11:20:08;4.03;;;3.63;;
79710;SDS011;69465;51.630;6.570;2023-05-01T11:22:43;5.67;;;3.80;;
79710;SDS011;69465;51.630;6.570;2023-05-01T11:25:17;4.70;;;3.43;;
79710;SDS011;69465;51.630;6.570;2023-05-01T11:27:54;4.50;;;4.10;;
79710;SDS011;69465;51.630;6.570;2023-05-01T11:30:22;4.07;;;3.67;;
79710;SDS011;69465;51.630;6.570;2023-05-01T11:32:49;4.60;;;3.90;;
79710;SDS011;69465;51.630;6.570;2023-05-01T11:35:24;4.63;;;4.18;;
79710;SDS011;69465;51.630;6.570;2023-05-01T11:37:51;5.10;;;4.50;;
79710;SDS011;69465;51.630;6.570;2023-05-01T11:40:24;4.67;;;4.17;;
79710;SDS011;69465;51.630;6.570;2023-05-01T11:43:05;4.27;;;3.87;;
79710;SDS011;69465;51.630;6.570;2023-05-01T11:45:33;5.83;;;4.83;;
79710;SDS011;69465;51.630;6.570;2023-05-01T11:48:02;4.00;;;3.70;;
79710;SDS011;69465;51.630;6.570;2023-05-01T11:50:31;6.87;;;4.73;;
79710;SDS011;69465;51.630;6.570;2023-05-01T11:52:57;4.57;;;3.87;;
79710;SDS011;69465;51.630;6.570;2023-05-01T11:55:33;3.50;;;3.10;;
79710;SDS011;69465;51.630;6.570;2023-05-01T11:58:00;4.80;;;3.60;;
79710;SDS011;69465;51.630;6.570;2023-05-01T12:00:27;3.70;;;3.00;;
79710;SDS011;69465;51.630;6.570;2023-05-01T12:02:58;3.97;;;3.47;;
79710;SDS011;69465;51.630;6.570;2023-05-01T12:05:30;4.03;;;3.37;;
79710;SDS011;69465;51.630;6.570;2023-05-01T12:10:45;2.87;;;2.20;;
79710;SDS011;69465;51.630;6.570;2023-05-01T12:13:13;2.40;;;1.80;;
79710;SDS011;69465;51.630;6.570;2023-05-01T12:15:44;3.77;;;1.90;;
79710;SDS011;69465;51.630;6.570;2023-05-01T12:18:12;3.73;;;3.30;;
79710;SDS011;69465;51.630;6.570;2023-05-01T12:20:40;4.90;;;3.50;;
79710;SDS011;69465;51.630;6.570;2023-05-01T12:23:08;4.07;;;3.20;;
79710;SDS011;69465;51.630;6.570;2023-05-01T12:25:36;5.33;;;3.30;;
79710;SDS011;69465;51.630;6.570;2023-05-01T12:28:22;5.37;;;3.80;;
79710;SDS011;69465;51.630;6.570;2023-05-01T12:30:49;6.33;;;3.90;;
79710;SDS011;69465;51.630;6.570;2023-05-01T12:33:16;5.80;;;3.80;;
79710;SDS011;69465;51.630;6.570;2023-05-01T12:35:45;5.37;;;4.20;;
79710;SDS011;69465;51.630;6.570;2023-05-01T12:40:52;4.10;;;3.70;;
79710;SDS011;69465;51.630;6.570;2023-05-01T12:43:21;6.10;;;3.97;;
79710;SDS011;69465;51.630;6.570;2023-05-01T12:45:54;4.10;;;3.77;;
79710;SDS011;69465;51.630;6.570;2023-05-01T12:48:21;4.17;;;2.70;;
79710;SDS011;69465;51.630;6.570;2023-05-01T12:50:49;4.03;;;2.90;;
79710;SDS011;69465;51.630;6.570;2023-05-01T12:53:16;3.83;;;3.30;;
79710;SDS011;69465;51.630;6.570;2023-05-01T12:55:44;5.37;;;4.93;;
79710;SDS011;69465;51.630;6.570;2023-05-01T12:58:11;5.77;;;5.03;;
79710;SDS011;69465;51.630;6.570;2023-05-01T13:00:42;6.87;;;5.27;;
79710;SDS011;69465;51.630;6.570;2023-05-01T13:03:10;5.50;;;4.60;;
79710;SDS011;69465;51.630;6.570;2023-05-01T13:05:48;6.10;;;5.20;;
79710;SDS011;69465;51.630;6.570;2023-05-01T13:08:21;7.03;;;5.00;;
79710;SDS011;69465;51.630;6.570;2023-05-01T13:11:13;6.70;;;5.87;;
79710;SDS011;69465;51.630;6.570;2023-05-01T13:13:44;5.30;;;3.60;;
79710;SDS011;69465;51.630;6.570;2023-05-01T13:16:12;4.53;;;3.73;;
79710;SDS011;69465;51.630;6.570;2023-05-01T13:18:44;3.13;;;2.80;;
79710;SDS011;69465;51.630;6.570;2023-05-01T13:21:17;3.83;;;2.70;;
79710;SDS011;69465;51.630;6.570;2023-05-01T13:23:58;2.23;;;2.03;;
79710;SDS011;69465;51.630;6.570;2023-05-01T13:28:53;2.17;;;1.87;;
79710;SDS011;69465;51.630;6.570;2023-05-01T13:31:21;2.60;;;2.27;;
79710;SDS011;69465;51.630;6.570;2023-05-01T13:33:51;2.33;;;2.13;;
79710;SDS011;69465;51.630;6.570;2023-05-01T13:36:19;3.67;;;2.10;;
79710;SDS011;69465;51.630;6.570;2023-05-01T13:38:53;2.30;;;1.93;;
79710;SDS011;69465;51.630;6.570;2023-05-01T13:41:22;3.67;;;2.20;;
79710;SDS011;69465;51.630;6.570;2023-05-01T13:43:50;2.63;;;2.13;;
79710;SDS011;69465;51.630;6.570;2023-05-01T13:46:19;3.37;;;2.50;;
79710;SDS011;69465;51.630;6.570;2023-05-01T13:48:47;2.70;;;2.43;;
79710;SDS011;69465;51.630;6.570;2023-05-01T13:51:18;3.63;;;3.33;;
79710;SDS011;69465;51.630;6.570;2023-05-01T13:53:47;4.53;;;4.13;;
79710;SDS011;69465;51.630;6.570;2023-05-01T13:56:14;24.40;;;21.80;;
79710;SDS011;69465;51.630;6.570;2023-05-01T13:58:40;17.70;;;15.90;;
79710;SDS011;69465;51.630;6.570;2023-05-01T14:01:14;3.67;;;3.20;;
79710;SDS011;69465;51.630;6.570;2023-05-01T14:03:42;3.83;;;3.43;;
79710;SDS011;69465;51.630;6.570;2023-05-01T14:06:10;7.10;;;6.50;;
79710;SDS011;69465;51.630;6.570;2023-05-01T14:08:39;4.20;;;3.80;;
79710;SDS011;69465;51.630;6.570;2023-05-01T14:11:06;6.47;;;4.20;;
79710;SDS011;69465;51.630;6.570;2023-05-01T14:13:34;5.23;;;4.73;;
79710;SDS011;69465;51.630;6.570;2023-05-01T14:16:04;4.13;;;3.73;;
79710;SDS011;69465;51.630;6.570;2023-05-01T14:18:33;17.23;;;12.70;;
79710;SDS011;69465;51.630;6.570;2023-05-01T14:20:59;10.57;;;8.03;;
79710;SDS011;69465;51.630;6.570;2023-05-01T14:23:26;8.20;;;7.47;;
79710;SDS011;69465;51.630;6.570;2023-05-01T14:25:53;7.87;;;6.37;;
79710;SDS011;69465;51.630;6.570;2023-05-01T14:28:20;14.47;;;12.90;;
79710;SDS011;69465;51.630;6.570;2023-05-01T14:30:47;3.57;;;3.00;;
79710;SDS011;69465;51.630;6.570;2023-05-01T14:33:13;4.77;;;3.20;;
79710;SDS011;69465;51.630;6.570;2023-05-01T14:35:43;3.90;;;3.50;;
79710;SDS011;69465;51.630;6.570;2023-05-01T14:38:13;5.27;;;4.77;;
79710;SDS011;69465;51.630;6.570;2023-05-01T14:40:42;4.60;;;3.93;;
79710;SDS011;69465;51.630;6.570;2023-05-01T14:43:17;8.87;;;5.23;;
79710;SDS011;69465;51.630;6.570;2023-05-01T14:45:45;6.17;;;5.00;;
79710;SDS011;69465;51.630;6.570;2023-05-01T14:48:16;4.73;;;4.23;;
79710;SDS011;69465;51.630;6.570;2023-05-01T14:50:50;4.32;;;4.00;;
79710;SDS011;69465;51.630;6.570;2023-05-01T14:53:17;4.32;;;3.90;;
79710;SDS011;69465;51.630;6.570;2023-05-01T14:55:44;5.10;;;4.53;;
79710;SDS011;69465;51.630;6.570;2023-05-01T14:58:15;9.50;;;7.50;;
79710;SDS011;69465;51.630;6.570;2023-05-01T15:00:42;14.97;;;10.53;;
79710;SDS011;69465;51.630;6.570;2023-05-01T15:03:08;13.70;;;9.23;;
79710;SDS011;69465;51.630;6.570;2023-05-01T15:05:35;18.27;;;13.00;;
79710;SDS011;69465;51.630;6.570;2023-05-01T15:08:02;22.80;;;13.80;;
79710;SDS011;69465;51.630;6.570;2023-05-01T15:10:29;20.53;;;14.37;;
79710;SDS011;69465;51.630;6.570;2023-05-01T15:12:55;13.73;;;9.90;;
79710;SDS011;69465;51.630;6.570;2023-05-01T15:15:22;2.20;;;1.93;;
79710;SDS011;69465;51.630;6.570;2023-05-01T15:17:49;1.80;;;1.57;;
79710;SDS011;69465;51.630;6.570;2023-05-01T15:20:16;1.83;;;1.67;;
79710;SDS011;69465;51.630;6.570;2023-05-01T15:22:42;2.40;;;2.10;;
79710;SDS011;69465;51.630;6.570;2023-05-01T15:25:09;6.03;;;4.70;;
79710;SDS011;69465;51.630;6.570;2023-05-01T15:27:36;8.77;;;3.93;;
79710;SDS011;69465;51.630;6.570;2023-05-01T15:30:03;6.27;;;5.07;;
79710;SDS011;69465;51.630;6.570;2023-05-01T15:32:29;7.20;;;5.60;;
79710;SDS011;69465;51.630;6.570;2023-05-01T15:34:56;8.97;;;8.07;;